createdAt,value
2023-05-19T00:00:56.656Z,9.44
2023-05-19T00:01:56.672Z,9.44
2023-05-19T00:02:56.743Z,9.46
2023-05-19T00:03:56.848Z,9.44
2023-05-19T00:04:56.611Z,9.48
2023-05-19T00:05:56.650Z,9.50
2023-05-19T00:06:56.588Z,9.37
2023-05-19T00:07:56.591Z,9.32
2023-05-19T00:08:56.576Z,9.34
2023-05-19T00:09:56.576Z,9.36
2023-05-19T00:10:56.574Z,9.40
2023-05-19T00:11:56.577Z,9.37
2023-05-19T00:12:56.538Z,9.37
2023-05-19T00:13:56.536Z,9.32
2023-05-19T00:14:56.522Z,9.40
2023-05-19T00:15:56.556Z,9.23
2023-05-19T00:16:56.502Z,9.18
2023-05-19T00:17:56.511Z,9.28
2023-05-19T00:18:56.557Z,9.23
2023-05-19T00:19:56.473Z,9.16
2023-05-19T00:20:56.461Z,9.23
2023-05-19T00:21:56.451Z,9.22
2023-05-19T00:22:56.443Z,9.28
2023-05-19T00:23:56.457Z,9.22
2023-05-19T00:24:56.422Z,9.19
2023-05-19T00:25:56.416Z,9.21
2023-05-19T00:26:56.406Z,9.18
2023-05-19T00:27:56.401Z,9.11
2023-05-19T00:28:56.385Z,9.10
2023-05-19T00:29:56.388Z,9.06
2023-05-19T00:30:56.379Z,9.03
2023-05-19T00:31:56.389Z,9.02
2023-05-19T00:32:56.367Z,9.13
2023-05-19T00:33:56.351Z,9.08
2023-05-19T00:34:56.331Z,9.03
2023-05-19T00:35:56.323Z,9.04
2023-05-19T00:36:56.316Z,9.03
2023-05-19T00:37:56.310Z,8.95
2023-05-19T00:38:56.316Z,8.99
2023-05-19T00:39:56.290Z,9.03
2023-05-19T00:40:56.273Z,8.94
2023-05-19T00:41:56.265Z,8.94
2023-05-19T00:42:56.259Z,8.89
2023-05-19T00:43:56.252Z,8.94
2023-05-19T00:44:56.241Z,8.91
2023-05-19T00:45:56.230Z,8.97
2023-05-19T00:46:56.251Z,8.91
2023-05-19T00:47:56.231Z,8.81
2023-05-19T00:48:56.215Z,8.74
2023-05-19T00:49:56.191Z,8.69
2023-05-19T00:50:56.181Z,8.85
2023-05-19T00:51:56.181Z,8.79
2023-05-19T00:52:56.165Z,8.76
2023-05-19T00:53:56.152Z,8.76
2023-05-19T00:54:56.144Z,8.74
2023-05-19T00:55:56.207Z,8.74
2023-05-19T00:56:56.125Z,8.69
2023-05-19T00:57:56.112Z,8.70
2023-05-19T00:58:56.106Z,8.71
2023-05-19T00:59:56.097Z,8.70
2023-05-19T01:00:56.147Z,8.67
2023-05-19T01:01:56.169Z,8.63
2023-05-19T01:02:56.178Z,8.63
2023-05-19T01:03:56.156Z,8.60
2023-05-19T01:04:56.048Z,8.56
2023-05-19T01:05:56.038Z,8.48
2023-05-19T01:06:56.040Z,8.51
2023-05-19T01:07:56.020Z,8.51
2023-05-19T01:08:56.027Z,8.52
2023-05-19T01:09:56.000Z,8.51
2023-05-19T01:10:56.010Z,8.46
2023-05-19T01:11:55.988Z,8.48
2023-05-19T01:12:55.968Z,8.44
2023-05-19T01:13:55.962Z,8.49
2023-05-19T01:14:55.958Z,8.41
2023-05-19T01:15:55.977Z,8.41
2023-05-19T01:16:55.994Z,8.36
2023-05-19T01:17:55.954Z,8.31
2023-05-19T01:18:55.948Z,8.38
2023-05-19T01:19:55.905Z,8.38
2023-05-19T01:20:55.892Z,8.36
2023-05-19T01:21:55.889Z,8.33
2023-05-19T01:22:55.881Z,8.34
2023-05-19T01:23:55.870Z,8.28
2023-05-19T01:24:55.853Z,8.33
2023-05-19T01:25:55.842Z,8.28
2023-05-19T01:26:55.850Z,8.24
2023-05-19T01:27:55.829Z,8.28
2023-05-19T01:28:55.815Z,8.20
2023-05-19T01:29:55.825Z,8.24
2023-05-19T01:30:55.803Z,8.26
2023-05-19T01:31:55.799Z,8.19
2023-05-19T01:32:55.847Z,8.20
2023-05-19T01:33:55.772Z,8.15
2023-05-19T01:34:55.763Z,8.18
2023-05-19T01:35:55.749Z,8.16
2023-05-19T01:36:55.737Z,8.13
2023-05-19T01:37:55.731Z,8.09
2023-05-19T01:38:55.723Z,8.13
2023-05-19T01:39:55.714Z,7.98
2023-05-19T01:40:55.702Z,7.97
2023-05-19T01:41:55.695Z,7.95
2023-05-19T01:42:57.432Z,7.97
2023-05-19T01:43:55.676Z,7.97
2023-05-19T01:44:55.695Z,7.97
2023-05-19T01:45:55.710Z,7.94
2023-05-19T01:46:55.644Z,7.90
2023-05-19T01:47:55.703Z,7.93
2023-05-19T01:48:55.625Z,8.00
2023-05-19T01:49:55.616Z,7.82
2023-05-19T01:50:55.610Z,7.76
2023-05-19T01:51:55.595Z,7.87
2023-05-19T01:52:55.592Z,7.73
2023-05-19T01:53:55.579Z,7.73
2023-05-19T01:54:55.569Z,7.70
2023-05-19T01:55:55.561Z,7.79
2023-05-19T01:56:55.552Z,7.73
2023-05-19T01:57:55.543Z,7.75
2023-05-19T01:58:55.532Z,7.77
2023-05-19T01:59:55.528Z,7.66
2023-05-19T02:00:55.564Z,7.67
2023-05-19T02:01:55.508Z,7.67
2023-05-19T02:02:55.509Z,7.61
2023-05-19T02:03:55.535Z,7.67
2023-05-19T02:04:55.510Z,7.58
2023-05-19T02:05:55.464Z,7.70
2023-05-19T02:06:55.464Z,7.63
2023-05-19T02:07:55.449Z,7.67
2023-05-19T02:08:55.432Z,7.66
2023-05-19T02:09:55.424Z,7.67
2023-05-19T02:10:55.413Z,7.79
2023-05-19T02:11:55.423Z,7.76
2023-05-19T02:12:55.398Z,7.67
2023-05-19T02:13:55.383Z,7.80
2023-05-19T02:14:55.372Z,7.72
2023-05-19T02:15:55.426Z,7.76
2023-05-19T02:16:55.350Z,7.66
2023-05-19T02:17:55.377Z,7.70
2023-05-19T02:18:55.419Z,7.63
2023-05-19T02:19:55.320Z,7.61
2023-05-19T02:20:55.311Z,7.58
2023-05-19T02:21:55.300Z,7.60
2023-05-19T02:22:55.293Z,7.67
2023-05-19T02:23:55.314Z,7.60
2023-05-19T02:24:55.270Z,7.53
2023-05-19T02:25:55.261Z,7.54
2023-05-19T02:26:55.249Z,7.56
2023-05-19T02:27:55.254Z,7.54
2023-05-19T02:28:55.254Z,7.50
2023-05-19T02:29:55.215Z,7.45
2023-05-19T02:30:55.211Z,7.51
2023-05-19T02:31:55.267Z,7.47
2023-05-19T02:32:55.221Z,7.54
2023-05-19T02:33:55.178Z,7.56
2023-05-19T02:34:55.175Z,7.51
2023-05-19T02:35:55.171Z,7.50
2023-05-19T02:36:55.157Z,7.48
2023-05-19T02:37:55.140Z,7.47
2023-05-19T02:38:55.141Z,7.51
2023-05-19T02:39:55.120Z,7.48
2023-05-19T02:40:55.113Z,7.45
2023-05-19T02:41:55.097Z,7.53
2023-05-19T02:42:55.091Z,7.51
2023-05-19T02:43:55.081Z,7.54
2023-05-19T02:44:55.077Z,7.56
2023-05-19T02:45:55.086Z,7.67
2023-05-19T02:46:55.101Z,7.70
2023-05-19T02:47:55.062Z,7.58
2023-05-19T02:48:55.042Z,7.67
2023-05-19T02:49:55.022Z,7.66
2023-05-19T02:50:55.012Z,7.73
2023-05-19T02:51:55.042Z,7.66
2023-05-19T02:52:54.989Z,7.69
2023-05-19T02:53:54.989Z,7.63
2023-05-19T02:54:54.978Z,7.73
2023-05-19T02:55:54.968Z,7.75
2023-05-19T02:56:54.952Z,7.85
2023-05-19T02:57:54.999Z,7.76
2023-05-19T02:58:54.934Z,7.80
2023-05-19T02:59:54.931Z,7.73
2023-05-19T03:00:54.909Z,7.72
2023-05-19T03:01:54.968Z,7.79
2023-05-19T03:02:54.977Z,7.70
2023-05-19T03:03:54.992Z,7.76
2023-05-19T03:04:54.877Z,7.75
2023-05-19T03:05:54.871Z,7.73
2023-05-19T03:06:54.857Z,7.77
2023-05-19T03:07:54.846Z,7.73
2023-05-19T03:08:54.834Z,7.80
2023-05-19T03:09:54.827Z,7.72
2023-05-19T03:10:54.814Z,7.70
2023-05-19T03:11:54.816Z,7.79
2023-05-19T03:12:54.792Z,7.75
2023-05-19T03:13:54.790Z,7.60
2023-05-19T03:14:54.773Z,7.63
2023-05-19T03:15:54.778Z,7.66
2023-05-19T03:16:54.823Z,7.66
2023-05-19T03:17:54.851Z,7.58
2023-05-19T03:18:54.754Z,7.57
2023-05-19T03:19:54.738Z,7.61
2023-05-19T03:20:54.720Z,7.66
2023-05-19T03:21:54.711Z,7.69
2023-05-19T03:22:54.707Z,7.69
2023-05-19T03:23:54.695Z,7.67
2023-05-19T03:24:54.679Z,7.63
2023-05-19T03:25:54.670Z,7.67
2023-05-19T03:26:54.660Z,7.56
2023-05-19T03:27:54.651Z,7.66
2023-05-19T03:28:54.643Z,7.51
2023-05-19T03:29:54.631Z,7.60
2023-05-19T03:30:54.649Z,7.57
2023-05-19T03:31:54.612Z,7.67
2023-05-19T03:32:54.622Z,7.58
2023-05-19T03:33:54.606Z,7.57
2023-05-19T03:34:54.583Z,7.57
2023-05-19T03:35:54.574Z,7.61
2023-05-19T03:36:54.559Z,7.57
2023-05-19T03:37:54.547Z,7.70
2023-05-19T03:38:54.546Z,7.61
2023-05-19T03:39:54.545Z,7.60
2023-05-19T03:40:54.525Z,7.67
2023-05-19T03:41:54.513Z,7.69
2023-05-19T03:42:54.503Z,7.54
2023-05-19T03:43:54.496Z,7.66
2023-05-19T03:44:54.488Z,7.70
2023-05-19T03:45:54.516Z,7.66
2023-05-19T03:46:54.469Z,7.66
2023-05-19T03:47:54.514Z,7.66
2023-05-19T03:48:54.453Z,7.63
2023-05-19T03:49:54.432Z,7.67
2023-05-19T03:50:54.430Z,7.66
2023-05-19T03:51:54.427Z,7.72
2023-05-19T03:52:54.416Z,7.82
2023-05-19T03:53:54.408Z,7.83
2023-05-19T03:54:54.392Z,7.73
2023-05-19T03:55:54.375Z,7.85
2023-05-19T03:56:54.372Z,7.91
2023-05-19T03:57:54.362Z,8.00
2023-05-19T03:58:54.349Z,7.98
2023-05-19T03:59:54.338Z,8.15
2023-05-19T04:00:54.327Z,8.12
2023-05-19T04:01:54.358Z,8.31
2023-05-19T04:02:54.409Z,8.41
2023-05-19T04:03:54.300Z,8.53
2023-05-19T04:04:54.385Z,8.60
2023-05-19T04:05:54.279Z,8.76
2023-05-19T04:06:54.272Z,8.85
2023-05-19T04:07:54.262Z,9.06
2023-05-19T04:08:54.252Z,9.25
2023-05-19T04:09:54.242Z,9.41
2023-05-19T04:10:54.232Z,9.55
2023-05-19T04:11:54.230Z,9.65
2023-05-19T04:12:54.213Z,9.62
2023-05-19T04:13:54.203Z,9.48
2023-05-19T04:14:54.200Z,9.47
2023-05-19T04:15:54.225Z,9.56
2023-05-19T04:16:54.182Z,9.65
2023-05-19T04:17:54.228Z,9.54
2023-05-19T04:18:54.264Z,9.66
2023-05-19T04:19:54.151Z,9.84
2023-05-19T04:20:54.140Z,9.94
2023-05-19T04:21:54.136Z,10.20
2023-05-19T04:22:54.128Z,10.31
2023-05-19T04:23:54.121Z,10.41
2023-05-19T04:24:54.102Z,10.34
2023-05-19T04:25:54.098Z,10.41
2023-05-19T04:26:54.088Z,10.48
2023-05-19T04:27:54.077Z,10.26
2023-05-19T04:28:54.065Z,10.23
2023-05-19T04:29:54.059Z,9.87
2023-05-19T04:30:54.091Z,9.68
2023-05-19T04:31:54.043Z,9.51
2023-05-19T04:32:54.054Z,9.44
2023-05-19T04:33:54.023Z,9.44
2023-05-19T04:34:54.016Z,9.36
2023-05-19T04:35:54.008Z,9.31
2023-05-19T04:36:54.000Z,9.43
2023-05-19T04:37:53.988Z,9.46
2023-05-19T04:38:53.981Z,9.48
2023-05-19T04:39:53.974Z,9.41
2023-05-19T04:40:53.962Z,9.47
2023-05-19T04:41:53.961Z,9.44
2023-05-19T04:42:53.949Z,9.68
2023-05-19T04:43:53.938Z,9.83
2023-05-19T04:44:53.950Z,10.07
2023-05-19T04:45:53.923Z,10.17
2023-05-19T04:46:54.031Z,10.34
2023-05-19T04:47:53.939Z,10.26
2023-05-19T04:48:53.894Z,10.38
2023-05-19T04:49:53.885Z,10.35
2023-05-19T04:50:53.882Z,10.41
2023-05-19T04:51:55.919Z,10.59
2023-05-19T04:52:53.857Z,10.44
2023-05-19T04:53:53.852Z,10.44
2023-05-19T04:54:53.839Z,10.59
2023-05-19T04:55:53.834Z,10.86
2023-05-19T04:56:53.823Z,10.90
2023-05-19T04:57:53.818Z,10.76
2023-05-19T04:58:53.875Z,10.96
2023-05-19T04:59:53.801Z,11.15
2023-05-19T05:00:53.788Z,11.05
2023-05-19T05:01:53.942Z,11.07
2023-05-19T05:02:53.810Z,11.19
2023-05-19T05:03:53.885Z,11.36
2023-05-19T05:04:53.777Z,11.65
2023-05-19T05:05:53.757Z,11.80
2023-05-19T05:06:53.738Z,11.63
2023-05-19T05:07:53.730Z,11.23
2023-05-19T05:08:53.730Z,11.15
2023-05-19T05:09:53.712Z,11.22
2023-05-19T05:10:53.705Z,11.32
2023-05-19T05:11:53.694Z,11.14
2023-05-19T05:12:53.697Z,11.22
2023-05-19T05:13:53.680Z,11.48
2023-05-19T05:14:53.670Z,11.73
2023-05-19T05:15:53.716Z,11.78
2023-05-19T05:16:53.730Z,11.81
2023-05-19T05:17:53.724Z,12.07
2023-05-19T05:18:53.672Z,12.10
2023-05-19T05:19:53.635Z,11.84
2023-05-19T05:20:53.624Z,11.83
2023-05-19T05:21:53.612Z,11.99
2023-05-19T05:22:53.610Z,11.86
2023-05-19T05:23:53.603Z,12.17
2023-05-19T05:24:53.591Z,12.22
2023-05-19T05:25:53.586Z,12.15
2023-05-19T05:26:53.577Z,12.04
2023-05-19T05:27:53.567Z,12.28
2023-05-19T05:28:53.561Z,12.55
2023-05-19T05:29:53.555Z,12.47
2023-05-19T05:30:53.545Z,12.83
2023-05-19T05:31:53.547Z,13.01
2023-05-19T05:32:53.762Z,13.15
2023-05-19T05:33:53.585Z,13.01
2023-05-19T05:34:53.533Z,12.78
2023-05-19T05:35:53.511Z,12.65
2023-05-19T05:36:53.506Z,12.25
2023-05-19T05:37:53.497Z,12.07
2023-05-19T05:38:53.492Z,11.77
2023-05-19T05:39:53.480Z,11.77
2023-05-19T05:40:53.615Z,11.84
2023-05-19T05:41:53.467Z,11.77
2023-05-19T05:42:53.462Z,11.86
2023-05-19T05:43:53.463Z,11.97
2023-05-19T05:44:53.446Z,12.02
2023-05-19T05:45:53.446Z,12.06
2023-05-19T05:46:53.434Z,12.00
2023-05-19T05:47:53.481Z,11.97
2023-05-19T05:48:53.418Z,12.15
2023-05-19T05:49:53.729Z,12.24
2023-05-19T05:50:53.404Z,12.17
2023-05-19T05:52:04.892Z,12.07
2023-05-19T05:52:53.389Z,12.20
2023-05-19T05:53:53.386Z,12.07
2023-05-19T05:54:53.429Z,11.81
2023-05-19T05:55:53.371Z,11.75
2023-05-19T05:56:53.364Z,11.78
2023-05-19T05:57:53.358Z,11.69
2023-05-19T05:58:53.364Z,11.68
2023-05-19T05:59:53.343Z,11.68
2023-05-19T06:00:53.361Z,11.86
2023-05-19T06:01:53.469Z,11.78
2023-05-19T06:02:53.445Z,11.83
2023-05-19T06:03:53.329Z,11.81
2023-05-19T06:04:53.306Z,11.78
2023-05-19T06:05:53.449Z,11.80
2023-05-19T06:06:53.300Z,11.73
2023-05-19T06:07:53.286Z,11.81
2023-05-19T06:08:53.280Z,11.80
2023-05-19T06:09:53.272Z,11.91
2023-05-19T06:10:53.276Z,11.97
2023-05-19T06:11:53.265Z,12.17
2023-05-19T06:12:53.248Z,12.39
2023-05-19T06:13:53.284Z,12.75
2023-05-19T06:14:53.239Z,12.97
2023-05-19T06:15:53.271Z,12.94
2023-05-19T06:16:53.228Z,12.87
2023-05-19T06:17:53.245Z,12.93
2023-05-19T06:18:53.265Z,12.93
2023-05-19T06:19:53.223Z,12.68
2023-05-19T06:20:53.194Z,12.54
2023-05-19T06:21:53.190Z,12.46
2023-05-19T06:22:53.185Z,12.43
2023-05-19T06:23:53.177Z,12.53
2023-05-19T06:24:53.172Z,12.60
2023-05-19T06:25:53.162Z,12.64
2023-05-19T06:26:53.358Z,12.90
2023-05-19T06:27:53.163Z,13.27
2023-05-19T06:28:53.141Z,13.59
2023-05-19T06:29:53.144Z,13.90
2023-05-19T06:30:53.126Z,13.97
2023-05-19T06:31:53.150Z,13.95
2023-05-19T06:32:53.150Z,14.29
2023-05-19T06:33:53.111Z,14.47
2023-05-19T06:34:53.113Z,14.72
2023-05-19T06:35:53.100Z,15.17
2023-05-19T06:36:53.089Z,15.58
2023-05-19T06:37:53.098Z,15.77
2023-05-19T06:38:53.082Z,15.65
2023-05-19T06:39:53.078Z,15.37
2023-05-19T06:40:53.085Z,15.70
2023-05-19T06:41:53.061Z,15.70
2023-05-19T06:42:53.065Z,15.98
2023-05-19T06:43:53.054Z,15.83
2023-05-19T06:44:53.047Z,15.25
2023-05-19T06:45:53.050Z,15.35
2023-05-19T06:46:53.123Z,15.03
2023-05-19T06:47:53.146Z,15.21
2023-05-19T06:48:53.031Z,15.49
2023-05-19T06:49:53.036Z,15.54
2023-05-19T06:50:53.024Z,15.22
2023-05-19T06:51:53.019Z,15.10
2023-05-19T06:52:53.016Z,15.39
2023-05-19T06:53:53.013Z,15.65
2023-05-19T06:54:53.005Z,15.62
2023-05-19T06:55:59.443Z,15.42
2023-05-19T06:56:53.005Z,15.43
2023-05-19T06:57:53.004Z,15.67
2023-05-19T06:58:53.003Z,16.36
2023-05-19T06:59:52.987Z,16.53
2023-05-19T07:00:52.995Z,16.23
2023-05-19T07:01:53.108Z,16.29
2023-05-19T07:02:53.056Z,16.43
2023-05-19T07:03:53.063Z,16.50
2023-05-19T07:04:52.988Z,16.81
2023-05-19T07:05:52.970Z,16.90
2023-05-19T07:06:52.967Z,17.14
2023-05-19T07:07:52.964Z,16.97
2023-05-19T07:08:52.983Z,17.14
2023-05-19T07:09:53.063Z,16.71
2023-05-19T07:10:52.945Z,16.75
2023-05-19T07:11:52.962Z,16.89
2023-05-19T07:12:52.950Z,16.76
2023-05-19T07:13:52.951Z,16.97
2023-05-19T07:14:52.944Z,17.46
2023-05-19T07:15:52.963Z,17.92
2023-05-19T07:16:52.996Z,17.95
2023-05-19T07:17:52.965Z,17.71
2023-05-19T07:18:52.974Z,17.68
2023-05-19T07:19:52.939Z,18.10
2023-05-19T07:20:52.937Z,17.63
2023-05-19T07:21:52.928Z,17.12
2023-05-19T07:22:52.928Z,16.75
2023-05-19T07:23:52.928Z,16.99
2023-05-19T07:24:52.917Z,17.41
2023-05-19T07:25:52.916Z,17.87
2023-05-19T07:26:52.916Z,17.79
2023-05-19T07:27:52.924Z,17.12
2023-05-19T07:28:52.912Z,16.78
2023-05-19T07:29:52.910Z,17.01
2023-05-19T07:30:52.911Z,16.99
2023-05-19T07:31:52.924Z,17.33
2023-05-19T07:32:52.927Z,17.87
2023-05-19T07:33:54.584Z,17.83
2023-05-19T07:34:52.903Z,18.07
2023-05-19T07:35:53.000Z,18.03
2023-05-19T07:36:52.900Z,17.56
2023-05-19T07:37:52.911Z,17.16
2023-05-19T07:38:52.991Z,16.86
2023-05-19T07:39:52.892Z,17.05
2023-05-19T07:40:52.942Z,17.05
2023-05-19T07:41:52.904Z,17.64
2023-05-19T07:42:52.897Z,17.44
2023-05-19T07:43:52.893Z,16.86
2023-05-19T07:44:52.882Z,16.46
2023-05-19T07:45:52.949Z,17.34
2023-05-19T07:46:52.886Z,17.64
2023-05-19T07:47:52.918Z,18.18
2023-05-19T07:48:52.877Z,17.90
2023-05-19T07:49:52.878Z,17.89
2023-05-19T07:50:52.885Z,17.90
2023-05-19T07:51:52.874Z,18.00
2023-05-19T07:52:52.874Z,18.15
2023-05-19T07:53:52.870Z,18.03
2023-05-19T07:54:52.872Z,18.08
2023-05-19T07:55:52.872Z,17.83
2023-05-19T07:56:52.866Z,18.08
2023-05-19T07:57:52.959Z,18.00
2023-05-19T07:58:52.866Z,18.55
2023-05-19T07:59:52.866Z,18.63
2023-05-19T08:25:58.003Z,19.31
2023-05-19T08:26:42.508Z,19.40
2023-05-19T08:28:46.567Z,19.02
2023-05-19T08:29:46.489Z,19.02
2023-05-19T08:31:39.615Z,19.26
2023-05-19T08:32:39.619Z,19.00
2023-05-19T08:34:43.570Z,17.95
2023-05-19T08:35:43.560Z,17.59
2023-05-19T08:37:47.578Z,17.42
2023-05-19T08:38:47.552Z,17.44
2023-05-19T08:40:40.663Z,17.59
2023-05-19T08:41:40.642Z,17.45
2023-05-19T08:43:44.627Z,17.42
2023-05-19T08:44:44.615Z,17.60
2023-05-19T08:46:37.588Z,17.31
2023-05-19T08:47:37.562Z,17.30
2023-05-19T08:49:30.645Z,17.86
2023-05-19T08:50:30.958Z,18.10
2023-05-19T08:52:34.644Z,18.23
2023-05-19T08:53:34.902Z,18.15
2023-05-19T08:55:38.662Z,18.62
2023-05-19T08:56:38.645Z,18.44
2023-05-19T08:58:31.845Z,18.26
2023-05-19T08:59:31.852Z,18.18
2023-05-19T09:01:24.983Z,18.40
2023-05-19T09:02:25.001Z,18.58
2023-05-19T09:04:30.133Z,18.98
2023-05-19T09:05:29.022Z,18.86
2023-05-19T09:07:33.021Z,19.08
2023-05-19T09:08:33.023Z,19.00
2023-05-19T09:10:27.291Z,18.44
2023-05-19T09:11:26.465Z,18.18
2023-05-19T09:13:19.594Z,18.23
2023-05-19T09:14:19.616Z,18.16
2023-05-19T09:15:19.597Z,18.18
2023-05-19T09:16:19.640Z,17.74
2023-05-19T09:17:19.607Z,17.44
2023-05-19T09:18:19.557Z,17.06
2023-05-19T09:19:19.577Z,17.01
2023-05-19T09:20:19.637Z,17.09
2023-05-19T09:21:19.573Z,17.15
2023-05-19T09:22:19.548Z,17.34
2023-05-19T09:23:19.543Z,17.63
2023-05-19T09:24:19.528Z,17.82
2023-05-19T09:25:19.572Z,17.83
2023-05-19T09:26:19.535Z,17.98
2023-05-19T09:27:19.526Z,18.03
2023-05-19T09:28:19.526Z,18.08
2023-05-19T09:29:19.520Z,17.94
2023-05-19T09:30:19.673Z,18.05
2023-05-19T09:31:19.509Z,18.11
2023-05-19T09:32:19.643Z,18.31
2023-05-19T09:33:19.563Z,18.34
2023-05-19T09:34:19.502Z,18.38
2023-05-19T09:35:19.503Z,18.43
2023-05-19T09:36:19.507Z,18.47
2023-05-19T09:37:19.491Z,18.45
2023-05-19T09:38:19.491Z,18.26
2023-05-19T09:39:19.485Z,18.20
2023-05-19T09:40:19.482Z,18.26
2023-05-19T09:41:19.476Z,18.15
2023-05-19T09:42:19.471Z,18.16
2023-05-19T09:43:19.471Z,18.13
2023-05-19T09:44:19.468Z,18.03
2023-05-19T09:45:19.499Z,18.13
2023-05-19T09:46:19.471Z,18.04
2023-05-19T09:47:19.460Z,18.07
2023-05-19T09:48:19.459Z,17.80
2023-05-19T09:49:19.451Z,17.85
2023-05-19T09:50:19.460Z,18.04
2023-05-19T09:51:19.450Z,18.22
2023-05-19T09:52:19.443Z,18.50
2023-05-19T09:53:19.443Z,18.59
2023-05-19T09:54:19.433Z,18.65
2023-05-19T09:55:19.433Z,18.43
2023-05-19T09:56:19.430Z,18.47
2023-05-19T09:57:19.424Z,18.13
2023-05-19T09:58:19.421Z,18.00
2023-05-19T09:59:19.419Z,18.03
2023-05-19T10:00:19.412Z,18.01
2023-05-19T10:01:19.448Z,18.10
2023-05-19T10:02:19.425Z,17.95
2023-05-19T10:03:19.464Z,17.95
2023-05-19T10:04:19.400Z,17.94
2023-05-19T10:05:19.459Z,17.74
2023-05-19T10:06:19.416Z,17.76
2023-05-19T10:07:19.415Z,17.86
2023-05-19T10:08:19.414Z,17.76
2023-05-19T10:09:19.387Z,17.70
2023-05-19T10:10:19.393Z,17.97
2023-05-19T10:11:19.376Z,18.22
2023-05-19T10:12:19.386Z,18.44
2023-05-19T10:13:19.367Z,18.19
2023-05-19T10:14:19.371Z,18.13
2023-05-19T10:15:20.671Z,18.29
2023-05-19T10:16:19.417Z,18.49
2023-05-19T10:17:19.356Z,18.56
2023-05-19T10:18:19.358Z,18.56
2023-05-19T10:19:19.438Z,18.40
2023-05-19T10:20:19.344Z,18.40
2023-05-19T10:21:19.339Z,18.53
2023-05-19T10:22:19.333Z,18.70
2023-05-19T10:23:19.333Z,18.96
2023-05-19T10:24:19.324Z,18.98
2023-05-19T10:25:19.327Z,18.83
2023-05-19T10:26:19.324Z,18.60
2023-05-19T10:27:19.317Z,18.49
2023-05-19T10:28:19.312Z,18.62
2023-05-19T10:29:19.307Z,18.71
2023-05-19T10:30:19.308Z,18.62
2023-05-19T10:31:19.302Z,18.50
2023-05-19T10:32:19.387Z,18.44
2023-05-19T10:33:19.317Z,18.31
2023-05-19T10:34:19.327Z,18.03
2023-05-19T10:35:19.289Z,18.20
2023-05-19T10:36:19.340Z,18.40
2023-05-19T10:37:19.276Z,18.45
2023-05-19T10:38:19.275Z,18.19
2023-05-19T10:39:19.296Z,18.40
2023-05-19T10:40:19.268Z,18.63
2023-05-19T10:41:19.262Z,18.84
2023-05-19T10:42:19.267Z,18.90
2023-05-19T10:43:19.257Z,18.81
2023-05-19T10:44:19.252Z,18.98
2023-05-19T10:45:19.253Z,19.09
2023-05-19T10:46:19.297Z,19.04
2023-05-19T10:47:19.308Z,19.14
2023-05-19T10:48:19.241Z,19.41
2023-05-19T10:49:19.234Z,19.47
2023-05-19T10:50:19.238Z,19.24
2023-05-19T10:51:19.231Z,19.18
2023-05-19T10:52:19.232Z,19.58
2023-05-19T10:53:19.221Z,19.63
2023-05-19T10:54:19.216Z,19.71
2023-05-19T10:55:19.262Z,19.51
2023-05-19T10:56:19.233Z,19.00
2023-05-19T10:57:19.212Z,18.80
2023-05-19T10:58:19.205Z,18.86
2023-05-19T10:59:19.199Z,18.89
2023-05-19T11:00:19.243Z,18.96
2023-05-19T11:01:19.331Z,18.96
2023-05-19T11:02:19.314Z,18.95
2023-05-19T11:03:19.207Z,19.02
2023-05-19T11:04:19.233Z,19.09
2023-05-19T11:05:19.192Z,18.84
2023-05-19T11:06:19.285Z,18.33
2023-05-19T11:07:19.179Z,18.18
2023-05-19T11:08:19.176Z,18.40
2023-05-19T11:09:20.902Z,18.71
2023-05-19T11:10:19.167Z,18.71
2023-05-19T11:11:19.176Z,18.98
2023-05-19T11:12:19.163Z,18.60
2023-05-19T11:13:19.162Z,18.80
2023-05-19T11:14:19.179Z,18.90
2023-05-19T11:15:19.156Z,18.84
2023-05-19T11:16:19.197Z,18.89
2023-05-19T11:17:19.174Z,19.02
2023-05-19T11:18:19.165Z,18.78
2023-05-19T11:19:19.200Z,18.99
2023-05-19T11:20:19.138Z,19.04
2023-05-19T11:21:19.223Z,19.21
2023-05-19T11:22:19.132Z,19.36
2023-05-19T11:23:19.177Z,19.11
2023-05-19T11:24:19.129Z,18.84
2023-05-19T11:25:19.118Z,18.84
2023-05-19T11:26:19.130Z,18.78
2023-05-19T11:27:19.138Z,18.81
2023-05-19T11:28:19.174Z,18.59
2023-05-19T11:29:19.143Z,18.29
2023-05-19T11:30:19.117Z,18.16
2023-05-19T11:31:19.102Z,18.29
2023-05-19T11:32:19.174Z,18.44
2023-05-19T11:33:19.162Z,18.41
2023-05-19T11:34:19.089Z,18.37
2023-05-19T11:35:19.151Z,18.62
2023-05-19T11:36:19.087Z,18.66
2023-05-19T11:37:19.085Z,18.98
2023-05-19T11:38:19.192Z,19.21
2023-05-19T11:39:19.088Z,19.69
2023-05-19T11:40:19.102Z,19.76
2023-05-19T11:41:20.785Z,19.81
2023-05-19T11:42:19.127Z,19.82
2023-05-19T11:43:19.063Z,19.96
2023-05-19T11:44:19.134Z,20.03
2023-05-19T11:45:19.054Z,19.47
2023-05-19T11:46:19.079Z,19.15
2023-05-19T11:47:19.047Z,19.07
2023-05-19T11:48:19.078Z,18.90
2023-05-19T11:49:19.048Z,18.81
2023-05-19T11:50:19.051Z,18.90
2023-05-19T11:51:19.041Z,19.12
2023-05-19T11:52:19.085Z,19.15
2023-05-19T11:53:19.034Z,19.22
2023-05-19T11:54:19.037Z,19.11
2023-05-19T11:55:19.035Z,19.09
2023-05-19T11:56:19.030Z,18.96
2023-05-19T11:57:19.013Z,19.14
2023-05-19T11:58:19.024Z,19.39
2023-05-19T11:59:19.050Z,19.44
2023-05-19T12:00:19.018Z,19.69
2023-05-19T12:01:19.010Z,19.82
2023-05-19T12:02:19.049Z,19.41
2023-05-19T12:03:19.040Z,19.55
2023-05-19T12:04:19.001Z,19.37
2023-05-19T12:05:19.041Z,19.56
2023-05-19T12:06:19.018Z,19.62
2023-05-19T12:07:18.994Z,19.52
2023-05-19T12:08:19.027Z,19.36
2023-05-19T12:09:19.000Z,19.44
2023-05-19T12:10:18.994Z,19.49
2023-05-19T12:11:20.077Z,19.56
2023-05-19T12:12:18.982Z,19.56
2023-05-19T12:13:18.976Z,19.59
2023-05-19T12:14:19.010Z,19.56
2023-05-19T12:15:18.975Z,19.44
2023-05-19T12:16:19.007Z,19.27
2023-05-19T12:17:18.970Z,18.89
2023-05-19T12:18:18.965Z,18.77
2023-05-19T12:19:19.005Z,19.02
2023-05-19T12:20:18.967Z,18.96
2023-05-19T12:21:18.957Z,18.83
2023-05-19T12:22:18.955Z,18.86
2023-05-19T12:23:18.958Z,19.21
2023-05-19T12:24:18.949Z,19.31
2023-05-19T12:25:18.999Z,19.40
2023-05-19T12:26:18.945Z,19.36
2023-05-19T12:27:18.944Z,19.09
2023-05-19T12:28:18.941Z,18.83
2023-05-19T12:29:18.936Z,18.86
2023-05-19T12:30:18.933Z,18.68
2023-05-19T12:31:18.946Z,18.80
2023-05-19T12:32:18.926Z,18.86
2023-05-19T12:33:18.926Z,18.92
2023-05-19T12:34:18.922Z,18.81
2023-05-19T12:35:18.917Z,18.60
2023-05-19T12:36:19.026Z,18.70
2023-05-19T12:37:18.914Z,18.75
2023-05-19T12:38:18.914Z,18.81
2023-05-19T12:39:19.568Z,18.83
2023-05-19T12:40:18.923Z,18.74
2023-05-19T12:41:18.902Z,18.84
2023-05-19T12:42:18.947Z,18.86
2023-05-19T12:43:18.897Z,18.92
2023-05-19T12:44:18.892Z,19.02
2023-05-19T12:45:18.904Z,19.22
2023-05-19T12:46:19.096Z,18.92
2023-05-19T12:47:18.886Z,18.93
2023-05-19T12:48:18.901Z,18.96
2023-05-19T12:49:18.885Z,18.92
2023-05-19T12:50:18.883Z,19.08
2023-05-19T12:51:18.875Z,19.22
2023-05-19T12:52:18.870Z,19.27
2023-05-19T12:53:18.868Z,19.34
2023-05-19T12:54:18.912Z,19.52
2023-05-19T12:55:18.863Z,19.64
2023-05-19T12:56:18.857Z,19.52
2023-05-19T12:57:18.854Z,19.19
2023-05-19T12:58:18.852Z,19.07
2023-05-19T12:59:26.987Z,18.89
2023-05-19T13:00:18.900Z,18.86
2023-05-19T13:01:18.909Z,18.93
2023-05-19T13:02:18.937Z,18.96
2023-05-19T13:03:18.981Z,18.92
2023-05-19T13:04:18.858Z,18.81
2023-05-19T13:05:18.832Z,18.73
2023-05-19T13:06:18.828Z,18.77
2023-05-19T13:07:18.843Z,18.98
2023-05-19T13:08:18.819Z,18.83
2023-05-19T13:09:18.820Z,18.89
2023-05-19T13:10:18.818Z,18.92
2023-05-19T13:11:18.818Z,18.92
2023-05-19T13:12:18.813Z,18.98
2023-05-19T13:13:18.808Z,18.90
2023-05-19T13:14:18.808Z,18.96
2023-05-19T13:15:18.800Z,18.92
2023-05-19T13:16:18.833Z,19.14
2023-05-19T13:17:18.792Z,19.26
2023-05-19T13:18:18.802Z,19.27
2023-05-19T13:19:25.527Z,19.37
2023-05-19T13:20:18.785Z,19.14
2023-05-19T13:21:18.782Z,19.04
2023-05-19T13:22:18.778Z,18.95
2023-05-19T13:23:18.773Z,18.95
2023-05-19T13:24:18.802Z,18.71
2023-05-19T13:25:18.774Z,18.70
2023-05-19T13:26:18.767Z,18.71
2023-05-19T13:27:18.783Z,18.75
2023-05-19T13:28:18.762Z,18.93
2023-05-19T13:29:18.752Z,18.77
2023-05-19T13:30:18.780Z,18.93
2023-05-19T13:31:18.794Z,18.93
2023-05-19T13:32:18.760Z,18.89
2023-05-19T13:33:18.813Z,18.84
2023-05-19T13:34:18.745Z,18.98
2023-05-19T13:35:18.734Z,18.90
2023-05-19T13:36:18.747Z,18.81
2023-05-19T13:37:18.833Z,18.90
2023-05-19T13:38:18.733Z,18.93
2023-05-19T13:39:18.722Z,19.11
2023-05-19T13:40:18.717Z,19.11
2023-05-19T13:41:18.725Z,18.92
2023-05-19T13:42:18.712Z,19.00